createdAt,value
2023-01-08T00:01:13.915Z,7.13
2023-01-08T00:03:41.045Z,7.09
2023-01-08T00:06:12.194Z,7.08
2023-01-08T00:08:39.177Z,7.11
2023-01-08T00:11:05.960Z,7.13
2023-01-08T00:13:32.742Z,7.17
2023-01-08T00:16:06.254Z,7.11
2023-01-08T00:18:33.321Z,7.16
2023-01-08T00:21:00.665Z,7.18
2023-01-08T00:23:27.466Z,7.12
2023-01-08T00:25:54.104Z,7.10
2023-01-08T00:28:21.047Z,7.11
2023-01-08T00:30:48.369Z,7.14
2023-01-08T00:33:15.543Z,7.07
2023-01-08T00:35:42.425Z,7.10
2023-01-08T00:38:09.175Z,7.08
2023-01-08T00:40:36.335Z,7.05
2023-01-08T00:43:03.607Z,6.98
2023-01-08T00:45:30.467Z,6.96
2023-01-08T00:47:57.262Z,6.99
2023-01-08T00:50:23.929Z,7.01
2023-01-08T00:52:50.626Z,6.97
2023-01-08T00:55:17.562Z,6.94
2023-01-08T00:57:44.275Z,6.91
2023-01-08T01:00:15.333Z,6.86
2023-01-08T01:02:42.655Z,6.89
2023-01-08T01:05:10.708Z,6.91
2023-01-08T01:07:37.359Z,6.86
2023-01-08T01:10:04.417Z,6.85
2023-01-08T01:12:31.135Z,6.85
2023-01-08T01:14:57.872Z,6.82
2023-01-08T01:17:24.837Z,6.77
2023-01-08T01:19:51.561Z,6.74
2023-01-08T01:22:18.299Z,6.77
2023-01-08T01:24:44.991Z,6.81
2023-01-08T01:27:11.695Z,6.73
2023-01-08T01:29:38.522Z,6.72
2023-01-08T01:32:06.202Z,6.79
2023-01-08T01:34:32.903Z,6.81
2023-01-08T01:36:59.661Z,6.78
2023-01-08T01:39:26.506Z,6.82
2023-01-08T01:41:53.402Z,6.80
2023-01-08T01:44:40.196Z,6.67
2023-01-08T01:47:29.906Z,6.69
2023-01-08T01:50:03.918Z,6.69
2023-01-08T01:52:35.135Z,6.69
2023-01-08T01:55:03.264Z,6.76
2023-01-08T01:57:31.583Z,6.80
2023-01-08T01:59:59.308Z,6.76
2023-01-08T02:02:26.379Z,6.76
2023-01-08T02:04:53.281Z,6.81
2023-01-08T02:07:29.042Z,6.77
2023-01-08T02:10:11.600Z,6.76
2023-01-08T02:12:45.230Z,6.68
2023-01-08T02:15:19.710Z,6.80
2023-01-08T02:17:55.414Z,6.82
2023-01-08T02:20:28.411Z,6.79
2023-01-08T02:23:21.020Z,6.78
2023-01-08T02:26:06.436Z,6.75
2023-01-08T02:28:38.325Z,6.80
2023-01-08T02:31:05.972Z,6.78
2023-01-08T02:33:33.131Z,6.79
2023-01-08T02:36:29.001Z,6.63
2023-01-08T02:39:12.710Z,6.62
2023-01-08T02:41:57.501Z,6.65
2023-01-08T02:45:02.964Z,6.62
2023-01-08T02:47:38.255Z,6.66
2023-01-08T02:50:11.217Z,6.65
2023-01-08T02:52:42.924Z,6.76
2023-01-08T02:55:10.646Z,6.73
2023-01-08T02:57:38.161Z,6.79
2023-01-08T03:00:06.085Z,6.78
2023-01-08T03:02:33.227Z,6.76
2023-01-08T03:05:05.383Z,6.75
2023-01-08T03:07:32.763Z,6.71
2023-01-08T03:09:59.680Z,6.72
2023-01-08T03:12:54.243Z,6.58
2023-01-08T03:15:25.781Z,6.78
2023-01-08T03:17:55.647Z,6.77
2023-01-08T03:20:23.479Z,6.77
2023-01-08T03:22:53.146Z,6.76
2023-01-08T03:25:22.000Z,6.80
2023-01-08T03:27:52.433Z,6.74
2023-01-08T03:30:20.167Z,6.73
2023-01-08T03:32:47.403Z,6.78
2023-01-08T03:35:17.669Z,6.74
2023-01-08T03:37:47.310Z,6.76
2023-01-08T03:40:38.651Z,6.66
2023-01-08T03:43:05.321Z,6.78
2023-01-08T03:45:32.478Z,6.83
2023-01-08T03:48:00.056Z,6.84
2023-01-08T03:50:28.991Z,6.85
2023-01-08T03:52:55.668Z,6.82
2023-01-08T03:55:22.462Z,6.86
2023-01-08T03:57:49.122Z,6.87
2023-01-08T04:00:16.557Z,6.86
2023-01-08T04:02:43.428Z,6.84
2023-01-08T04:05:10.751Z,6.83
2023-01-08T04:07:37.406Z,6.85
2023-01-08T04:10:04.657Z,6.86
2023-01-08T04:12:31.388Z,6.87
2023-01-08T04:14:58.127Z,6.86
2023-01-08T04:17:24.805Z,6.79
2023-01-08T04:19:51.503Z,6.86
2023-01-08T04:22:18.230Z,6.87
2023-01-08T04:24:44.973Z,6.88
2023-01-08T04:27:11.661Z,6.85
2023-01-08T04:29:38.391Z,6.84
2023-01-08T04:32:05.127Z,6.81
2023-01-08T04:34:31.787Z,6.83
2023-01-08T04:36:59.095Z,6.88
2023-01-08T04:39:25.820Z,6.91
2023-01-08T04:41:52.603Z,6.98
2023-01-08T04:44:19.346Z,7.00
2023-01-08T04:46:46.084Z,7.04
2023-01-08T04:49:13.003Z,7.01
2023-01-08T04:51:39.688Z,6.97
2023-01-08T04:54:06.543Z,7.00
2023-01-08T04:56:33.272Z,6.99
2023-01-08T04:59:00.008Z,6.97
2023-01-08T05:01:27.976Z,6.96
2023-01-08T05:03:56.376Z,6.95
2023-01-08T05:06:23.622Z,6.95
2023-01-08T05:08:50.395Z,6.98
2023-01-08T05:11:17.084Z,6.96
2023-01-08T05:13:44.040Z,6.95
2023-01-08T05:16:10.813Z,6.99
2023-01-08T05:18:37.668Z,6.96
2023-01-08T05:21:05.579Z,6.97
2023-01-08T05:23:33.233Z,7.03
2023-01-08T05:26:01.233Z,7.02
2023-01-08T05:28:28.332Z,7.01
2023-01-08T05:30:55.397Z,6.98
2023-01-08T05:33:22.608Z,6.98
2023-01-08T05:35:49.403Z,6.97
2023-01-08T05:38:16.226Z,6.99
2023-01-08T05:40:42.962Z,6.98
2023-01-08T05:43:09.702Z,6.96
2023-01-08T05:45:36.403Z,6.93
2023-01-08T05:48:07.119Z,6.89
2023-01-08T05:50:34.232Z,6.91
2023-01-08T05:53:00.985Z,6.85
2023-01-08T05:55:27.728Z,6.88
2023-01-08T05:57:54.564Z,6.90
2023-01-08T06:00:21.403Z,6.90
2023-01-08T06:02:48.523Z,6.93
2023-01-08T06:05:15.382Z,6.93
2023-01-08T06:07:42.054Z,6.92
2023-01-08T06:10:09.138Z,6.93
2023-01-08T06:12:35.993Z,6.94
2023-01-08T06:15:03.530Z,6.93
2023-01-08T06:17:30.333Z,6.95
2023-01-08T06:19:57.206Z,6.99
2023-01-08T06:22:23.922Z,6.99
2023-01-08T06:24:50.656Z,6.94
2023-01-08T06:27:17.355Z,6.94
2023-01-08T06:29:44.055Z,6.97
2023-01-08T06:32:10.846Z,6.91
2023-01-08T06:34:37.635Z,6.89
2023-01-08T06:37:04.402Z,6.86
2023-01-08T06:39:31.161Z,6.90
2023-01-08T06:41:57.965Z,6.92
2023-01-08T06:44:25.275Z,6.91
2023-01-08T06:46:52.113Z,6.91
2023-01-08T06:49:19.765Z,6.87
2023-01-08T06:51:46.599Z,6.91
2023-01-08T06:54:13.706Z,6.91
2023-01-08T06:56:53.062Z,6.91
2023-01-08T06:59:20.585Z,6.90
2023-01-08T07:01:47.492Z,6.94
2023-01-08T07:04:14.273Z,6.89
2023-01-08T07:06:41.159Z,6.87
2023-01-08T07:09:07.967Z,6.90
2023-01-08T07:11:34.659Z,6.90
2023-01-08T07:14:01.355Z,6.91
2023-01-08T07:16:28.106Z,6.93
2023-01-08T07:18:54.812Z,6.93
2023-01-08T07:21:22.528Z,6.92
2023-01-08T07:23:50.536Z,6.94
2023-01-08T07:26:17.484Z,6.90
2023-01-08T07:28:44.436Z,6.96
2023-01-08T07:31:11.194Z,6.96
2023-01-08T07:33:37.993Z,6.95
2023-01-08T07:36:05.670Z,6.98
2023-01-08T07:38:32.466Z,6.95
2023-01-08T07:40:59.318Z,6.98
2023-01-08T07:43:26.415Z,7.00
2023-01-08T07:45:53.292Z,6.95
2023-01-08T07:48:20.051Z,6.96
2023-01-08T07:50:46.847Z,6.98
2023-01-08T07:53:14.002Z,6.96
2023-01-08T07:55:40.835Z,6.93
2023-01-08T07:58:12.086Z,6.91
2023-01-08T08:00:38.912Z,6.97
2023-01-08T08:03:07.123Z,7.02
2023-01-08T08:05:33.931Z,7.03
2023-01-08T08:08:00.975Z,7.05
2023-01-08T08:10:27.739Z,7.08
2023-01-08T08:12:54.412Z,7.10
2023-01-08T08:15:21.048Z,7.11
2023-01-08T08:17:47.890Z,7.12
2023-01-08T08:20:15.047Z,7.11
2023-01-08T08:22:41.929Z,7.09
2023-01-08T08:25:08.992Z,7.07
2023-01-08T08:27:35.703Z,7.08
2023-01-08T08:30:03.248Z,7.13
2023-01-08T08:32:30.057Z,7.14
2023-01-08T08:34:56.717Z,7.13
2023-01-08T08:37:23.405Z,7.14
2023-01-08T08:39:50.128Z,7.12
2023-01-08T08:42:16.793Z,7.14
2023-01-08T08:44:43.578Z,7.14
2023-01-08T08:47:10.364Z,7.11
2023-01-08T08:49:37.214Z,7.13
2023-01-08T08:52:04.660Z,7.10
2023-01-08T08:54:31.584Z,7.11
2023-01-08T08:56:58.302Z,7.12
2023-01-08T08:59:25.119Z,7.15
2023-01-08T09:01:51.991Z,7.16
2023-01-08T09:04:18.747Z,7.15
2023-01-08T09:06:45.526Z,7.18
2023-01-08T09:09:12.267Z,7.18
2023-01-08T09:11:38.995Z,7.14
2023-01-08T09:14:05.759Z,7.14
2023-01-08T09:16:33.118Z,7.15
2023-01-08T09:18:59.919Z,7.17
2023-01-08T09:21:26.577Z,7.16
2023-01-08T09:23:53.294Z,7.19
2023-01-08T09:26:19.993Z,7.16
2023-01-08T09:28:46.709Z,7.17
2023-01-08T09:31:13.543Z,7.18
2023-01-08T09:33:40.335Z,7.21
2023-01-08T09:36:11.465Z,7.17
2023-01-08T09:38:38.254Z,7.21
2023-01-08T09:41:08.717Z,7.17
2023-01-08T09:43:36.824Z,7.19
2023-01-08T09:46:05.745Z,7.20
2023-01-08T09:48:37.981Z,7.16
2023-01-08T09:51:06.883Z,7.17
2023-01-08T09:53:33.590Z,7.15
2023-01-08T09:56:10.191Z,7.17
2023-01-08T09:58:44.698Z,7.13
2023-01-08T10:01:18.065Z,7.20
2023-01-08T10:04:03.783Z,7.12
2023-01-08T10:06:31.246Z,7.22
2023-01-08T10:08:58.246Z,7.24
2023-01-08T10:11:26.906Z,7.25
2023-01-08T10:13:56.168Z,7.26
2023-01-08T10:16:35.492Z,7.23
2023-01-08T10:19:04.273Z,7.30
2023-01-08T10:21:33.221Z,7.29
2023-01-08T10:23:59.920Z,7.31
2023-01-08T10:26:37.988Z,7.26
2023-01-08T10:29:10.076Z,7.31
2023-01-08T10:31:52.755Z,7.31
2023-01-08T10:34:44.582Z,7.35
2023-01-08T10:37:32.427Z,7.36
2023-01-08T10:40:22.075Z,7.45
2023-01-08T10:42:50.112Z,7.47
2023-01-08T10:45:22.612Z,7.48
2023-01-08T10:47:51.751Z,7.52
2023-01-08T10:50:28.613Z,7.50
2023-01-08T10:53:00.377Z,7.53
2023-01-08T10:55:32.399Z,7.51
2023-01-08T10:58:13.816Z,7.51
2023-01-08T11:00:41.128Z,7.52
2023-01-08T11:03:15.863Z,7.56
2023-01-08T11:05:43.131Z,7.58
2023-01-08T11:08:23.059Z,7.57
2023-01-08T11:10:58.870Z,7.58
2023-01-08T11:13:26.147Z,7.64
2023-01-08T11:16:04.569Z,7.61
2023-01-08T11:18:31.343Z,7.67
2023-01-08T11:21:10.764Z,7.65
2023-01-08T11:23:37.427Z,7.71
2023-01-08T11:26:18.401Z,7.68
2023-01-08T11:28:58.812Z,7.72
2023-01-08T11:31:39.969Z,7.70
2023-01-08T11:34:16.407Z,7.75
2023-01-08T11:36:48.983Z,7.78
2023-01-08T11:39:16.459Z,7.82
2023-01-08T11:41:44.006Z,7.87
2023-01-08T11:44:25.844Z,7.88
2023-01-08T11:46:55.079Z,7.93
2023-01-08T11:50:16.999Z,7.88
2023-01-08T11:53:05.594Z,7.89
2023-01-08T11:55:47.367Z,7.90
2023-01-08T11:58:41.464Z,7.92
2023-01-08T12:01:13.967Z,7.98
2023-01-08T12:03:57.464Z,7.96
2023-01-08T12:06:34.352Z,7.90
2023-01-08T12:09:18.523Z,7.97
2023-01-08T12:11:47.612Z,7.90
2023-01-08T12:14:41.568Z,8.07
2023-01-08T12:17:11.148Z,8.15
2023-01-08T12:20:05.116Z,8.16
2023-01-08T12:22:34.646Z,8.21
2023-01-08T12:25:21.673Z,8.17
2023-01-08T12:28:17.860Z,8.22
2023-01-08T12:31:06.763Z,8.20
2023-01-08T12:33:37.515Z,8.19
2023-01-08T12:36:10.078Z,8.18
2023-01-08T12:38:40.127Z,8.20
2023-01-08T12:41:15.066Z,8.21
2023-01-08T12:44:16.985Z,8.26
2023-01-08T12:46:45.998Z,8.25
2023-01-08T12:49:15.866Z,8.28
2023-01-08T12:52:08.683Z,8.23
2023-01-08T12:54:52.847Z,8.28
2023-01-08T12:57:27.853Z,8.27
2023-01-08T13:00:06.822Z,8.25
2023-01-08T13:02:44.970Z,8.30
2023-01-08T13:05:35.440Z,8.25
2023-01-08T13:08:20.479Z,8.33
2023-01-08T13:10:53.815Z,8.32
2023-01-08T13:13:32.315Z,8.33
2023-01-08T13:16:11.172Z,8.34
2023-01-08T13:18:38.376Z,8.41
2023-01-08T13:21:05.586Z,8.42
2023-01-08T13:23:36.561Z,8.45
2023-01-08T13:26:05.736Z,8.45
2023-01-08T13:28:35.023Z,8.46
2023-01-08T13:31:27.854Z,8.40
2023-01-08T13:33:55.295Z,8.45
2023-01-08T13:36:26.700Z,8.46
2023-01-08T13:39:10.472Z,8.44
2023-01-08T13:41:41.693Z,8.49
2023-01-08T13:44:36.068Z,8.46
2023-01-08T13:47:06.959Z,8.50
2023-01-08T13:49:42.581Z,8.50
2023-01-08T13:52:44.290Z,8.46
2023-01-08T13:55:33.238Z,8.46
2023-01-08T13:58:03.107Z,8.54
2023-01-08T14:00:50.530Z,8.48
2023-01-08T14:03:33.912Z,8.53
2023-01-08T14:06:05.880Z,8.56
2023-01-08T14:08:32.990Z,8.60
2023-01-08T14:10:59.700Z,8.62
2023-01-08T14:13:30.932Z,8.64
2023-01-08T14:16:02.621Z,8.66
2023-01-08T14:18:29.372Z,8.68
2023-01-08T14:20:56.138Z,8.69
2023-01-08T14:23:32.535Z,8.65
2023-01-08T14:26:03.298Z,8.68
2023-01-08T14:28:30.006Z,8.67
2023-01-08T14:30:57.440Z,8.68
2023-01-08T14:33:35.047Z,8.68
2023-01-08T14:36:02.731Z,8.69
2023-01-08T14:38:29.534Z,8.71
2023-01-08T14:41:06.246Z,8.68
2023-01-08T14:43:34.532Z,8.73
2023-01-08T14:46:03.500Z,8.72
2023-01-08T14:48:40.556Z,8.72
2023-01-08T14:51:17.375Z,8.71
2023-01-08T14:53:46.423Z,8.73
2023-01-08T14:56:18.027Z,8.73
2023-01-08T14:58:45.274Z,8.72
2023-01-08T15:01:31.214Z,8.64
2023-01-08T15:04:18.631Z,8.66
2023-01-08T15:06:45.440Z,8.68
2023-01-08T15:09:24.057Z,8.63
2023-01-08T15:11:56.330Z,8.64
2023-01-08T15:14:24.668Z,8.66
2023-01-08T15:16:55.715Z,8.66
2023-01-08T15:19:26.946Z,8.67
2023-01-08T15:21:57.619Z,8.67
2023-01-08T15:24:33.331Z,8.62
2023-01-08T15:27:09.587Z,8.66
2023-01-08T15:29:47.270Z,8.64
2023-01-08T15:32:13.908Z,8.64
2023-01-08T15:34:44.075Z,8.65
2023-01-08T15:37:10.950Z,8.65
2023-01-08T15:39:37.653Z,8.64
2023-01-08T15:42:35.961Z,8.61
2023-01-08T15:45:03.533Z,8.62
2023-01-08T15:47:30.300Z,8.62
2023-01-08T15:49:57.066Z,8.63
2023-01-08T15:52:25.102Z,8.63
2023-01-08T15:54:51.820Z,8.64
2023-01-08T15:57:21.081Z,8.63
2023-01-08T15:59:47.793Z,8.63
2023-01-08T16:02:16.275Z,8.62
2023-01-08T16:04:43.378Z,8.62
2023-01-08T16:07:10.124Z,8.60
2023-01-08T16:09:36.970Z,8.60
2023-01-08T16:12:03.887Z,8.60
2023-01-08T16:14:37.811Z,8.59
2023-01-08T16:17:08.476Z,8.59
2023-01-08T16:19:35.268Z,8.58
2023-01-08T16:22:02.200Z,8.57
2023-01-08T16:24:28.872Z,8.57
2023-01-08T16:26:55.632Z,8.57
2023-01-08T16:29:22.348Z,8.57
2023-01-08T16:31:49.175Z,8.56
2023-01-08T16:34:16.074Z,8.56
2023-01-08T16:36:42.911Z,8.56
2023-01-08T16:39:09.606Z,8.57
2023-01-08T16:41:36.851Z,8.56
2023-01-08T16:44:03.870Z,8.57
2023-01-08T16:46:30.722Z,8.57
2023-01-08T16:48:57.480Z,8.56
2023-01-08T16:51:25.978Z,8.57
2023-01-08T16:53:52.713Z,8.59
2023-01-08T16:56:19.422Z,8.59
2023-01-08T16:58:50.023Z,8.59
2023-01-08T17:01:16.934Z,8.59
2023-01-08T17:03:43.696Z,8.62
2023-01-08T17:06:12.652Z,8.62
2023-01-08T17:08:41.215Z,8.62
2023-01-08T17:11:09.761Z,8.61
2023-01-08T17:13:36.424Z,8.61
2023-01-08T17:16:04.742Z,8.62
2023-01-08T17:18:31.559Z,8.61
2023-01-08T17:20:58.281Z,8.61
2023-01-08T17:23:27.541Z,8.63
2023-01-08T17:25:59.474Z,8.61
2023-01-08T17:28:28.443Z,8.64
2023-01-08T17:31:02.493Z,8.59
2023-01-08T17:33:29.187Z,8.62
2023-01-08T17:35:55.852Z,8.65
2023-01-08T17:38:22.659Z,8.63
2023-01-08T17:40:49.385Z,8.65
2023-01-08T17:43:16.123Z,8.65
2023-01-08T17:45:42.785Z,8.65
2023-01-08T17:48:09.600Z,8.66
2023-01-08T17:50:39.117Z,8.66
2023-01-08T17:53:05.827Z,8.66
2023-01-08T17:55:32.503Z,8.66
2023-01-08T17:57:59.197Z,8.65
2023-01-08T18:00:26.191Z,8.65
2023-01-08T18:02:54.177Z,8.65
2023-01-08T18:05:20.848Z,8.66
2023-01-08T18:07:47.516Z,8.66
2023-01-08T18:10:14.422Z,8.67
2023-01-08T18:12:41.072Z,8.66
2023-01-08T18:15:08.857Z,8.67
2023-01-08T18:17:35.600Z,8.67
2023-01-08T18:20:02.377Z,8.68
2023-01-08T18:22:29.144Z,8.67
2023-01-08T18:24:55.881Z,8.69
2023-01-08T18:27:22.571Z,8.68
2023-01-08T18:29:49.236Z,8.71
2023-01-08T18:32:17.273Z,8.71
2023-01-08T18:34:44.068Z,8.69
2023-01-08T18:37:10.935Z,8.71
2023-01-08T18:39:37.699Z,8.71
2023-01-08T18:42:23.635Z,8.70
2023-01-08T18:44:52.573Z,8.71
2023-01-08T18:47:20.566Z,8.70
2023-01-08T18:49:47.329Z,8.71
2023-01-08T18:52:14.162Z,8.72
2023-01-08T18:54:40.920Z,8.70
2023-01-08T18:57:07.621Z,8.71
2023-01-08T18:59:36.708Z,8.68
2023-01-08T19:02:06.056Z,8.69
2023-01-08T19:04:32.841Z,8.68
2023-01-08T19:06:59.756Z,8.68
2023-01-08T19:09:27.964Z,8.70
2023-01-08T19:11:54.702Z,8.68
2023-01-08T19:14:21.404Z,8.68
2023-01-08T19:16:51.259Z,8.66
2023-01-08T19:19:19.355Z,8.65
2023-01-08T19:21:46.112Z,8.65
2023-01-08T19:24:12.796Z,8.65
2023-01-08T19:26:39.480Z,8.64
2023-01-08T19:29:06.208Z,8.65
2023-01-08T19:31:33.042Z,8.66
2023-01-08T19:34:00.770Z,8.66
2023-01-08T19:36:27.938Z,8.66
2023-01-08T19:38:54.954Z,8.66
2023-01-08T19:41:40.189Z,8.65
2023-01-08T19:44:08.501Z,8.62
2023-01-08T19:46:36.326Z,8.60
2023-01-08T19:49:04.472Z,8.60
2023-01-08T19:51:32.974Z,8.56
2023-01-08T19:54:00.968Z,8.55
2023-01-08T19:56:28.159Z,8.54
2023-01-08T19:58:55.848Z,8.51
2023-01-08T20:01:25.313Z,8.52
2023-01-08T20:03:52.723Z,8.54
2023-01-08T20:06:23.112Z,8.56
2023-01-08T20:08:53.090Z,8.57
2023-01-08T20:11:22.282Z,8.58
2023-01-08T20:13:49.820Z,8.59
2023-01-08T20:16:19.092Z,8.60
2023-01-08T20:18:46.202Z,8.60
2023-01-08T20:21:16.001Z,8.61
2023-01-08T20:23:43.621Z,8.60
2023-01-08T20:26:14.111Z,8.61
2023-01-08T20:28:41.601Z,8.60
2023-01-08T20:31:10.928Z,8.60
2023-01-08T20:33:37.972Z,8.61
2023-01-08T20:36:09.486Z,8.59
2023-01-08T20:38:36.656Z,8.61
2023-01-08T20:41:04.216Z,8.63
2023-01-08T20:43:30.937Z,8.62
2023-01-08T20:45:57.620Z,8.62
2023-01-08T20:48:24.329Z,8.62
2023-01-08T20:50:55.757Z,8.60
2023-01-08T20:53:22.655Z,8.61
2023-01-08T20:55:49.407Z,8.63
2023-01-08T20:58:16.272Z,8.63
2023-01-08T21:00:43.061Z,8.62
2023-01-08T21:03:10.472Z,8.62
2023-01-08T21:05:38.389Z,8.62
2023-01-08T21:08:06.584Z,8.63
2023-01-08T21:10:34.817Z,8.63
2023-01-08T21:13:01.732Z,8.60
2023-01-08T21:15:28.525Z,8.60
2023-01-08T21:17:55.214Z,8.60
2023-01-08T21:20:21.917Z,8.57
2023-01-08T21:22:48.653Z,8.59
2023-01-08T21:25:15.320Z,8.56
2023-01-08T21:27:42.062Z,8.54
2023-01-08T21:30:09.431Z,8.54
2023-01-08T21:32:36.610Z,8.55
2023-01-08T21:35:03.472Z,8.56
2023-01-08T21:37:31.384Z,8.56
2023-01-08T21:39:58.079Z,8.57
2023-01-08T21:42:43.457Z,8.56
2023-01-08T21:45:25.209Z,8.56
2023-01-08T21:47:52.756Z,8.57
2023-01-08T21:50:20.032Z,8.54
2023-01-08T21:53:05.409Z,8.56
2023-01-08T21:55:33.593Z,8.55
2023-01-08T21:58:00.591Z,8.54
2023-01-08T22:00:28.375Z,8.53
2023-01-08T22:02:55.137Z,8.53
2023-01-08T22:05:21.848Z,8.52
2023-01-08T22:07:48.567Z,8.53
2023-01-08T22:10:15.493Z,8.51
2023-01-08T22:12:42.316Z,8.47
2023-01-08T22:15:10.009Z,8.50
2023-01-08T22:17:36.966Z,8.47
2023-01-08T22:20:06.623Z,8.47
2023-01-08T22:22:33.529Z,8.48
2023-01-08T22:25:00.278Z,8.46
2023-01-08T22:27:27.032Z,8.48
2023-01-08T22:29:54.462Z,8.42
2023-01-08T22:32:21.245Z,8.43
2023-01-08T22:34:48.003Z,8.43
2023-01-08T22:37:16.827Z,8.44
2023-01-08T22:39:43.528Z,8.43
2023-01-08T22:42:10.228Z,8.42
2023-01-08T22:44:37.006Z,8.38
2023-01-08T22:47:05.946Z,8.40
2023-01-08T22:49:33.485Z,8.35
2023-01-08T22:52:00.391Z,8.38
2023-01-08T22:54:27.383Z,8.39
2023-01-08T22:56:54.066Z,8.38
2023-01-08T22:59:21.321Z,8.41
2023-01-08T23:01:48.153Z,8.44
2023-01-08T23:04:15.597Z,8.44
2023-01-08T23:06:42.377Z,8.45
2023-01-08T23:09:09.111Z,8.47
2023-01-08T23:11:35.933Z,8.50
2023-01-08T23:14:02.620Z,8.50
2023-01-08T23:16:29.494Z,8.49
2023-01-08T23:18:56.647Z,8.47
2023-01-08T23:21:25.045Z,8.48
2023-01-08T23:23:52.212Z,8.48
2023-01-08T23:26:25.202Z,8.46
2023-01-08T23:28:52.970Z,8.44
2023-01-08T23:31:22.960Z,8.44
2023-01-08T23:33:49.965Z,8.46
2023-01-08T23:36:21.295Z,8.46
2023-01-08T23:38:49.821Z,8.46
2023-01-08T23:41:17.322Z,8.50
2023-01-08T23:43:45.870Z,8.50
2023-01-08T23:46:13.543Z,8.54
2023-01-08T23:48:40.525Z,8.54
2023-01-08T23:51:07.759Z,8.57
2023-01-08T23:53:34.520Z,8.58
2023-01-08T23:56:01.259Z,8.59
2023-01-08T23:58:27.928Z,8.60
